Terminal Aerodrome Forecast
Issued by NWS Memphis, TN

Home | Current Version | Previous Version | Text Only | Print | Product List | Glossary On
Versions: 1 2 3 4 5 6 7 8 9 10 11 12 13 14 15 16 17 18 19 20 21 22
000
FTUS44 KMEG 012332
TAFMKL
TAF
KMKL 012332Z 0200/0224 VRB03KT P6SM SCT070 OVC150
     FM020800 36005KT P6SM VCSH BKN035 OVC070
     FM021500 01007KT 6SM -SHRA VCTS BKN025CB OVC040=

USA.gov is the U.S. government's official web portal to all federal, state and local government web resources and services.